Time;durP1;ratioP1;P1;durP2;ratioP2;P2;SDS_P1;SDS_P2;PMS_P1;PMS_P2;Temp;Humidity;BMP_temperature;BMP_pressure;BME280_temperature;BME280_humidity;BME280_pressure;Samples;Min_cycle;Max_cycle;Signal;HPM_P1;HPM_P2
2021/11/12 00:04:18;;;;;;;61.63;30.70;;;7.60;99.90;;;;;;12369934;28;20521;-37
2021/11/12 00:16:41;;;;;;;60.72;32.95;;;7.50;99.90;;;;;;12377143;28;20104;-38
2021/11/12 00:22:43;;;;;;;62.45;31.98;;;7.50;99.90;;;;;;12373889;28;20508;-37
2021/11/12 00:29:00;;;;;;;57.75;30.90;;;7.40;99.90;;;;;;12385613;28;20393;-40
2021/11/12 00:35:25;;;;;;;45.42;23.48;;;7.40;99.90;;;;;;12402168;28;20476;-37
2021/11/12 00:47:43;;;;;;;55.55;26.98;;;7.40;99.90;;;;;;12424032;28;20556;-37
2021/11/12 00:54:28;;;;;;;60.63;28.73;;;7.20;99.90;;;;;;12422060;28;20788;-40
2021/11/12 01:00:12;;;;;;;67.90;30.73;;;7.10;99.90;;;;;;12410863;28;20145;-41
2021/11/12 01:06:14;;;;;;;62.63;29.80;;;7.20;99.90;;;;;;12417052;28;20133;-38
2021/11/12 01:12:16;;;;;;;63.03;31.27;;;7.20;99.90;;;;;;12419357;28;20037;-41
2021/11/12 01:18:18;;;;;;;61.63;27.73;;;7.20;99.90;;;;;;12419953;28;20069;-40
2021/11/12 01:24:20;;;;;;;60.90;28.55;;;7.20;99.90;;;;;;12415389;28;20045;-41
2021/11/12 01:30:22;;;;;;;59.47;28.52;;;7.30;99.90;;;;;;12391458;28;20042;-36
2021/11/12 01:36:30;;;;;;;63.85;29.42;;;7.40;99.90;;;;;;12367943;28;20054;-38
2021/11/12 01:42:54;;;;;;;60.58;30.13;;;7.30;99.90;;;;;;12372481;28;20078;-41
2021/11/12 01:55:17;;;;;;;65.88;30.85;;;7.40;99.90;;;;;;12375785;28;20057;-40
2021/11/12 02:01:22;;;;;;;68.15;33.53;;;7.40;99.90;;;;;;12375273;28;20125;-41
2021/11/12 02:07:24;;;;;;;;;;;7.40;99.90;;;;;;12377190;28;20467;-37
2021/11/12 02:13:26;;;;;;;67.57;33.78;;;7.30;99.90;;;;;;12375587;28;19929;-39
2021/11/12 02:19:28;;;;;;;75.22;33.78;;;7.30;99.90;;;;;;12378670;28;20588;-38
2021/11/12 02:25:42;;;;;;;68.45;32.60;;;7.30;99.90;;;;;;12376653;28;20169;-42
2021/11/12 02:31:44;;;;;;;72.35;33.45;;;7.30;99.90;;;;;;12418820;28;20092;-41
2021/11/12 02:37:46;;;;;;;71.13;32.90;;;7.30;99.90;;;;;;12420361;28;20050;-37
2021/11/12 02:43:52;;;;;;;68.75;33.13;;;7.30;99.90;;;;;;12425067;28;20050;-36
2021/11/12 02:49:57;;;;;;;73.57;32.47;;;7.30;99.90;;;;;;12425397;28;20053;-40
2021/11/12 02:56:01;;;;;;;66.55;33.72;;;7.30;99.90;;;;;;12426763;28;20144;-37
2021/11/12 03:02:05;;;;;;;;;;;7.20;99.90;;;;;;12424219;28;20070;-42
2021/11/12 03:08:07;;;;;;;69.47;31.35;;;7.20;99.90;;;;;;12423078;28;19995;-43
2021/11/12 03:14:11;;;;;;;63.15;32.33;;;7.20;99.90;;;;;;12422486;28;20614;-39
2021/11/12 03:20:15;;;;;;;67.03;32.13;;;7.20;99.90;;;;;;12425779;28;20046;-41
2021/11/12 05:45:46;;;;;;;44.40;21.38;;;7.20;99.90;;;;;;12422321;28;20054;-40
2021/11/12 05:58:08;;;;;;;36.75;17.65;;;6.80;99.90;;;;;;12421396;28;20483;-41
2021/11/12 06:04:11;;;;;;;31.23;17.15;;;6.80;99.90;;;;;;12420314;28;20104;-41
2021/11/12 06:10:14;;;;;;;33.22;16.50;;;6.90;99.90;;;;;;12417485;28;20100;-39
2021/11/12 06:16:16;;;;;;;28.73;15.40;;;6.80;99.90;;;;;;12418046;28;20082;-41
2021/11/12 06:22:19;;;;;;;33.95;16.52;;;6.80;99.90;;;;;;12420595;28;20041;-41
2021/11/12 06:28:22;;;;;;;28.05;14.88;;;6.70;99.90;;;;;;12430352;28;20054;-41
2021/11/12 06:34:32;;;;;;;31.95;15.10;;;6.60;99.90;;;;;;12430964;28;20046;-41
2021/11/12 06:40:37;;;;;;;30.40;15.60;;;6.70;99.90;;;;;;12431044;28;20042;-37
2021/11/12 06:53:02;;;;;;;29.02;14.88;;;6.70;99.90;;;;;;12427700;28;20682;-41
2021/11/12 06:59:04;;;;;;;26.80;13.73;;;6.60;99.90;;;;;;12406572;28;20054;-41
2021/11/12 07:05:08;;;;;;;27.25;14.00;;;6.40;99.90;;;;;;12404198;28;20149;-37
2021/11/12 07:11:10;;;;;;;30.30;14.27;;;6.40;99.90;;;;;;12430237;28;20053;-41
2021/11/12 07:17:13;;;;;;;25.20;12.82;;;6.50;99.90;;;;;;12413303;28;20054;-37
2021/11/12 07:23:17;;;;;;;21.65;11.75;;;6.60;99.90;;;;;;12432962;28;20107;-36
2021/11/12 07:29:20;;;;;;;22.35;11.25;;;6.70;99.90;;;;;;12431115;28;20144;-40
2021/11/12 07:35:29;;;;;;;21.35;10.40;;;6.80;99.90;;;;;;12428524;28;20403;-38
2021/11/12 07:42:05;;;;;;;16.00;8.55;;;6.90;99.90;;;;;;12428977;28;20051;-36
2021/11/12 07:48:05;;;;;;;14.52;7.93;;;6.90;99.90;;;;;;12428707;28;20052;-36
2021/11/12 07:54:08;;;;;;;15.60;7.22;;;6.90;99.90;;;;;;12427190;28;20660;-40
2021/11/12 08:00:12;;;;;;;9.57;5.22;;;6.90;99.90;;;;;;12429391;28;20053;-40
2021/11/12 08:06:17;;;;;;;5.43;3.42;;;6.90;99.90;;;;;;12428493;28;20045;-41
2021/11/12 08:18:56;;;;;;;4.85;2.80;;;7.00;99.90;;;;;;12422327;28;20062;-41
2021/11/12 08:31:28;;;;;;;4.97;3.10;;;7.30;99.90;;;;;;12388186;28;20046;-37
2021/11/12 08:43:47;;;;;;;9.18;4.40;;;7.30;99.90;;;;;;12372395;28;20554;-37
2021/11/12 08:49:53;;;;;;;11.30;5.68;;;7.20;99.90;;;;;;12372113;28;20042;-37
2021/11/12 08:55:56;;;;;;;;;;;7.40;99.90;;;;;;12350223;28;20508;-41
2021/11/12 09:02:00;;;;;;;8.40;5.38;;;7.40;99.90;;;;;;12370634;28;19984;-37
2021/11/12 09:08:02;;;;;;;8.85;5.35;;;7.40;99.90;;;;;;12368078;28;20101;-36
2021/11/12 09:14:06;;;;;;;11.45;6.40;;;7.60;99.90;;;;;;12372953;28;20046;-37
2021/11/12 09:20:09;;;;;;;11.00;7.30;;;7.70;99.90;;;;;;12378359;28;20120;-40
2021/11/12 09:26:12;;;;;;;12.80;7.68;;;7.70;99.90;;;;;;12356954;28;20053;-41
2021/11/12 09:32:16;;;;;;;12.05;8.77;;;7.60;99.90;;;;;;12419245;28;20078;-37
2021/11/12 09:38:19;;;;;;;15.13;11.32;;;7.60;99.90;;;;;;12422967;28;20069;-38
2021/11/12 09:44:23;;;;;;;16.10;11.27;;;7.40;99.90;;;;;;12422419;28;20081;-41
2021/11/12 09:50:31;;;;;;;19.65;12.40;;;7.50;99.90;;;;;;12409847;28;20065;-37
2021/11/12 09:56:34;;;;;;;19.15;13.52;;;7.20;99.90;;;;;;12424267;28;20468;-40
2021/11/12 10:02:44;;;;;;;19.52;13.23;;;7.20;99.90;;;;;;12429776;28;20507;-41
2021/11/12 10:08:48;;;;;;;20.63;13.35;;;7.40;99.90;;;;;;12435058;28;20472;-40
2021/11/12 10:14:57;;;;;;;22.05;15.40;;;7.30;99.90;;;;;;12412050;28;20046;-40
2021/11/12 10:21:03;;;;;;;23.48;14.45;;;7.20;99.90;;;;;;12433356;28;20053;-37
2021/11/12 10:27:19;;;;;;;20.73;14.75;;;7.40;99.90;;;;;;12435583;28;20134;-37
2021/11/12 10:33:36;;;;;;;23.08;15.35;;;7.70;99.90;;;;;;12431500;28;20504;-40
2021/11/12 10:39:45;;;;;;;19.17;14.18;;;7.80;99.90;;;;;;12432860;28;20049;-41
2021/11/12 10:45:47;;;;;;;19.60;14.32;;;8.10;99.90;;;;;;12431791;28;20049;-40
2021/11/12 10:51:59;;;;;;;22.17;14.17;;;8.20;99.90;;;;;;12411898;28;20508;-36
2021/11/12 10:58:08;;;;;;;20.27;14.48;;;8.20;99.90;;;;;;12401596;28;20401;-37
2021/11/12 11:04:26;;;;;;;21.80;13.48;;;8.40;99.90;;;;;;12413861;28;20054;-37
2021/11/12 11:10:35;;;;;;;21.95;13.65;;;8.60;99.90;;;;;;12432370;28;20136;-42
2021/11/12 11:16:37;;;;;;;24.98;15.13;;;8.90;99.90;;;;;;12413130;28;20144;-41
2021/11/12 11:22:44;;;;;;;;;;;9.00;99.90;;;;;;12422739;28;20052;-40
2021/11/12 11:28:49;;;;;;;22.30;14.40;;;8.90;99.90;;;;;;12424084;28;19971;-36
2021/11/12 11:34:53;;;;;;;18.95;13.38;;;9.00;99.90;;;;;;12429127;28;20925;-41
2021/11/12 11:40:59;;;;;;;20.08;13.65;;;9.00;99.90;;;;;;12428990;28;20050;-41
2021/11/12 11:47:08;;;;;;;20.95;13.50;;;9.30;99.90;;;;;;12433609;28;20137;-36
2021/11/12 11:53:25;;;;;;;21.55;14.07;;;9.70;99.90;;;;;;12404671;28;20054;-41
2021/11/12 11:59:36;;;;;;;22.88;13.98;;;9.60;99.90;;;;;;12426645;28;20054;-37
2021/11/12 12:06:19;;;;;;;22.13;14.35;;;9.40;99.90;;;;;;12423578;28;20112;-41
2021/11/12 12:12:50;;;;;;;22.30;13.88;;;9.30;99.90;;;;;;12317475;28;20045;-41
2021/11/12 12:19:03;;;;;;;24.83;14.95;;;9.30;99.90;;;;;;12428913;28;20066;-41
2021/11/12 12:32:41;;;;;;;22.80;15.23;;;9.20;99.90;;;;;;12435310;28;20058;-37
2021/11/12 13:25:45;;;;;;;18.45;11.75;;;9.00;99.90;;;;;;12421114;28;20050;-37
2021/11/12 13:32:03;;;;;;;16.55;11.30;;;9.00;99.90;;;;;;12423291;28;20057;-36
2021/11/12 13:38:10;;;;;;;15.80;10.38;;;9.00;99.90;;;;;;12443695;28;20101;-40
2021/11/12 13:44:29;;;;;;;18.27;11.45;;;8.90;99.90;;;;;;12445211;28;20058;-40
2021/11/12 13:50:38;;;;;;;15.18;10.75;;;8.90;99.90;;;;;;12447179;28;20093;-41
2021/11/12 13:56:51;;;;;;;16.20;10.15;;;8.80;99.90;;;;;;12450764;28;20508;-37
2021/11/12 14:03:17;;;;;;;15.00;10.25;;;8.80;99.90;;;;;;12447948;28;20088;-37
2021/11/12 14:09:36;;;;;;;16.88;10.70;;;8.70;99.90;;;;;;12449971;28;20048;-43
2021/11/12 14:22:51;;;;;;;16.77;11.10;;;8.50;99.90;;;;;;12434497;28;20088;-38
2021/11/12 14:29:13;;;;;;;17.55;10.77;;;8.50;99.90;;;;;;12442066;28;20054;-37
2021/11/12 14:48:36;;;;;;;17.40;11.57;;;8.00;99.90;;;;;;12442881;28;20103;-41
2021/11/12 14:54:56;;;;;;;20.23;13.00;;;7.80;99.90;;;;;;12402817;28;20042;-40
2021/11/12 15:01:21;;;;;;;20.00;12.70;;;7.70;99.90;;;;;;12411551;28;20116;-41
2021/11/12 15:07:44;;;;;;;18.45;12.68;;;7.60;99.90;;;;;;12400051;28;20057;-41
2021/11/12 15:14:08;;;;;;;24.02;14.25;;;7.50;99.90;;;;;;12431081;28;20393;-37
2021/11/12 15:20:38;;;;;;;23.40;14.45;;;7.30;99.90;;;;;;12436897;28;20180;-41
2021/11/12 15:27:03;;;;;;;23.25;15.82;;;7.10;99.90;;;;;;12435173;28;20472;-41
2021/11/12 15:33:17;;;;;;;27.17;16.80;;;6.90;99.90;;;;;;12410321;28;20504;-36
2021/11/12 15:46:09;;;;;;;26.05;16.23;;;6.60;99.90;;;;;;12428753;28;20520;-36
2021/11/12 16:06:33;;;;;;;26.13;16.52;;;6.30;99.90;;;;;;12425238;28;20111;-41
2021/11/12 16:25:14;;;;;;;26.23;16.67;;;6.20;99.90;;;;;;12403025;28;20053;-36
2021/11/12 16:31:16;;;;;;;27.85;16.58;;;6.20;99.90;;;;;;12433589;28;20076;-42
2021/11/12 16:37:23;;;;;;;27.08;15.90;;;6.20;99.90;;;;;;12431329;28;20045;-37
2021/11/12 16:44:22;;;;;;;27.77;16.77;;;6.20;99.90;;;;;;12428354;28;20049;-40
2021/11/12 17:02:50;;;;;;;26.65;16.77;;;6.10;99.90;;;;;;12430421;28;20050;-40
2021/11/12 17:09:10;;;;;;;25.63;17.17;;;6.00;99.90;;;;;;12424492;28;20140;-36
2021/11/12 17:46:50;;;;;;;24.48;16.17;;;5.90;99.90;;;;;;12424930;28;20301;-37
2021/11/12 18:05:48;;;;;;;23.38;15.05;;;6.20;99.90;;;;;;12416995;28;20057;-41
2021/11/12 21:52:16;;;;;;;16.13;9.68;;;5.60;99.90;;;;;;12419222;28;20046;-41
2021/11/12 21:58:19;;;;;;;15.55;10.13;;;5.50;99.90;;;;;;12431902;28;20076;-41
2021/11/12 22:04:27;;;;;;;15.55;9.68;;;5.50;99.90;;;;;;12422213;28;20748;-40
2021/11/12 22:10:29;;;;;;;14.07;9.32;;;5.40;99.90;;;;;;12414160;28;20107;-37
2021/11/12 22:16:31;;;;;;;15.00;9.10;;;5.50;99.90;;;;;;12430045;28;20140;-41
2021/11/12 22:22:33;;;;;;;13.85;8.70;;;5.40;99.90;;;;;;12429312;28;20057;-41
2021/11/12 22:28:35;;;;;;;15.80;9.20;;;5.30;99.90;;;;;;12429476;28;20107;-36
2021/11/12 22:34:37;;;;;;;12.50;8.40;;;5.40;99.90;;;;;;12428258;28;20165;-36
2021/11/12 22:40:42;;;;;;;14.88;7.95;;;5.40;99.90;;;;;;12430683;28;20137;-36
2021/11/12 22:46:46;;;;;;;15.13;8.73;;;5.30;99.90;;;;;;12428904;28;20103;-36
2021/11/12 22:52:49;;;;;;;14.00;8.23;;;5.40;99.90;;;;;;12427493;28;20058;-40
2021/11/12 22:58:51;;;;;;;12.38;7.78;;;5.40;99.90;;;;;;12430018;28;20050;-40
2021/11/12 23:04:53;;;;;;;14.55;7.40;;;5.40;99.90;;;;;;12425971;28;20115;-37
2021/11/12 23:10:56;;;;;;;13.23;7.80;;;5.40;99.90;;;;;;12422036;28;20049;-40
2021/11/12 23:16:58;;;;;;;11.18;7.45;;;5.40;99.90;;;;;;12425330;28;20135;-39
2021/11/12 23:23:00;;;;;;;11.25;7.15;;;5.40;99.90;;;;;;12429122;28;20053;-40
2021/11/12 23:29:02;;;;;;;13.10;7.57;;;5.40;99.90;;;;;;12422234;28;20057;-40
2021/11/12 23:35:05;;;;;;;11.75;7.38;;;5.40;99.90;;;;;;12425108;28;20107;-37
2021/11/12 23:41:08;;;;;;;10.50;6.82;;;5.50;99.90;;;;;;12427507;28;20045;-37
2021/11/12 23:47:10;;;;;;;12.57;7.07;;;5.50;99.90;;;;;;12420691;28;20462;-40
2021/11/12 23:53:12;;;;;;;11.27;6.75;;;5.60;99.90;;;;;;12422718;28;20693;-41
2021/11/12 23:59:15;;;;;;;16.33;7.00;;;5.70;99.90;;;;;;12420224;28;20053;-37
